createdAt,value
2023-02-04T00:01:22.213Z,0.00
2023-02-04T00:03:54.564Z,0.11
2023-02-04T00:06:27.711Z,0.11
2023-02-04T00:09:00.224Z,0.26
2023-02-04T00:11:32.883Z,0.21
2023-02-04T00:14:05.277Z,0.26
2023-02-04T00:16:37.716Z,0.25
2023-02-04T00:19:10.322Z,0.29
2023-02-04T00:21:43.424Z,0.29
2023-02-04T00:24:15.770Z,0.40
2023-02-04T00:26:48.138Z,0.24
2023-02-04T00:29:20.584Z,0.21
2023-02-04T00:31:53.085Z,0.29
2023-02-04T00:34:26.645Z,0.33
2023-02-04T00:37:00.988Z,0.36
2023-02-04T00:39:33.541Z,0.26
2023-02-04T00:42:06.066Z,0.15
2023-02-04T00:44:38.523Z,0.00
2023-02-04T00:47:10.944Z,-0.09
2023-02-04T00:49:43.315Z,-0.12
2023-02-04T00:52:16.338Z,-0.12
2023-02-04T00:54:48.695Z,-0.12
2023-02-04T00:57:21.110Z,-0.12
2023-02-04T00:59:53.553Z,-0.06
2023-02-04T01:02:26.099Z,-0.11
2023-02-04T01:04:58.444Z,-0.03
2023-02-04T01:07:31.611Z,0.03
2023-02-04T01:10:05.109Z,-0.03
2023-02-04T01:12:37.748Z,0.06
2023-02-04T01:15:11.641Z,-0.01
2023-02-04T01:17:44.090Z,0.06
2023-02-04T01:20:17.289Z,0.07
2023-02-04T01:22:50.499Z,0.22
2023-02-04T01:25:22.842Z,0.23
2023-02-04T01:27:55.224Z,0.12
2023-02-04T01:30:27.573Z,0.09
2023-02-04T01:33:01.708Z,0.02
2023-02-04T01:35:34.625Z,0.06
2023-02-04T01:38:07.740Z,0.13
2023-02-04T01:40:41.092Z,0.05
2023-02-04T01:43:13.537Z,0.01
2023-02-04T01:45:46.135Z,0.05
2023-02-04T01:48:21.272Z,0.31
2023-02-04T01:51:00.939Z,0.32
2023-02-04T01:53:34.572Z,0.27
2023-02-04T01:56:16.146Z,0.20
2023-02-04T01:58:49.900Z,0.35
2023-02-04T02:01:36.837Z,0.25
2023-02-04T02:04:11.082Z,0.33
2023-02-04T02:06:46.839Z,0.33
2023-02-04T02:09:19.915Z,0.33
2023-02-04T02:11:53.273Z,0.16
2023-02-04T02:14:25.609Z,0.35
2023-02-04T02:16:58.140Z,0.38
2023-02-04T02:19:35.995Z,0.23
2023-02-04T02:22:14.936Z,0.24
2023-02-04T02:24:47.965Z,0.38
2023-02-04T02:27:21.263Z,0.35
2023-02-04T02:29:53.756Z,0.47
2023-02-04T02:32:26.253Z,0.57
2023-02-04T02:34:58.834Z,0.54
2023-02-04T02:37:33.479Z,0.34
2023-02-04T02:40:08.197Z,0.59
2023-02-04T02:42:42.455Z,0.72
2023-02-04T02:45:23.705Z,0.73
2023-02-04T02:47:58.998Z,0.60
2023-02-04T02:50:33.584Z,0.57
2023-02-04T02:53:11.517Z,0.56
2023-02-04T02:55:45.484Z,0.71
2023-02-04T02:58:24.110Z,0.75
2023-02-04T03:00:57.304Z,0.82
2023-02-04T03:03:35.412Z,0.79
2023-02-04T03:06:11.924Z,0.74
2023-02-04T03:08:44.873Z,0.86
2023-02-04T03:11:18.051Z,0.85
2023-02-04T03:13:52.241Z,0.88
2023-02-04T03:16:24.644Z,0.86
2023-02-04T03:18:57.325Z,0.91
2023-02-04T03:21:29.868Z,0.85
2023-02-04T03:24:02.724Z,0.84
2023-02-04T03:26:35.879Z,0.70
2023-02-04T03:29:09.792Z,0.85
2023-02-04T03:31:42.845Z,0.63
2023-02-04T03:34:15.322Z,0.63
2023-02-04T03:36:47.690Z,0.51
2023-02-04T03:39:20.069Z,0.82
2023-02-04T03:41:53.163Z,0.95
2023-02-04T03:44:26.209Z,0.94
2023-02-04T03:46:59.469Z,0.91
2023-02-04T03:49:31.932Z,0.98
2023-02-04T03:52:05.123Z,0.94
2023-02-04T03:54:37.424Z,0.90
2023-02-04T03:57:10.498Z,1.09
2023-02-04T03:59:42.842Z,0.84
2023-02-04T04:02:15.509Z,0.96
2023-02-04T04:04:47.888Z,0.77
2023-02-04T04:07:20.296Z,1.01
2023-02-04T04:09:52.689Z,0.91
2023-02-04T04:12:25.793Z,0.96
2023-02-04T04:14:58.084Z,0.75
2023-02-04T04:17:30.560Z,0.75
2023-02-04T04:20:03.480Z,0.75
2023-02-04T04:22:35.879Z,0.66
2023-02-04T04:25:08.966Z,0.87
2023-02-04T04:27:42.000Z,0.92
2023-02-04T04:30:14.560Z,0.84
2023-02-04T04:32:46.917Z,0.60
2023-02-04T04:35:19.328Z,0.66
2023-02-04T04:37:51.638Z,0.85
2023-02-04T04:40:24.035Z,0.98
2023-02-04T04:42:57.086Z,1.06
2023-02-04T04:45:29.620Z,0.92
2023-02-04T04:48:01.978Z,0.92
2023-02-04T04:50:34.664Z,0.83
2023-02-04T04:53:10.484Z,0.95
2023-02-04T04:55:42.859Z,0.98
2023-02-04T04:58:15.865Z,0.93
2023-02-04T05:00:48.487Z,1.00
2023-02-04T05:03:20.899Z,0.89
2023-02-04T05:05:53.265Z,0.93
2023-02-04T05:08:25.582Z,0.80
2023-02-04T05:10:57.988Z,0.79
2023-02-04T05:13:30.979Z,0.67
2023-02-04T05:16:03.733Z,0.53
2023-02-04T05:18:36.051Z,0.73
2023-02-04T05:21:08.575Z,0.36
2023-02-04T05:23:40.946Z,0.46
2023-02-04T05:26:19.532Z,0.18
2023-02-04T05:28:59.832Z,0.10
2023-02-04T05:31:32.562Z,0.35
2023-02-04T05:34:05.041Z,0.35
2023-02-04T05:36:37.429Z,0.42
2023-02-04T05:39:09.804Z,0.23
2023-02-04T05:41:42.376Z,0.21
2023-02-04T05:44:15.500Z,0.28
2023-02-04T05:46:47.898Z,0.32
2023-02-04T05:49:20.237Z,0.28
2023-02-04T05:51:52.906Z,0.33
2023-02-04T05:54:25.448Z,0.27
2023-02-04T05:56:57.874Z,0.42
2023-02-04T05:59:31.118Z,0.52
2023-02-04T06:02:04.890Z,0.58
2023-02-04T06:04:37.239Z,0.64
2023-02-04T06:07:09.689Z,0.72
2023-02-04T06:09:42.120Z,0.67
2023-02-04T06:12:14.573Z,0.70
2023-02-04T06:14:47.560Z,0.65
2023-02-04T06:17:19.933Z,0.26
2023-02-04T06:19:52.335Z,0.50
2023-02-04T06:22:25.441Z,0.28
2023-02-04T06:24:57.903Z,0.45
2023-02-04T06:27:30.543Z,0.31
2023-02-04T06:30:04.264Z,0.50
2023-02-04T06:32:36.701Z,0.31
2023-02-04T06:35:09.809Z,0.34
2023-02-04T06:37:42.323Z,0.50
2023-02-04T06:40:14.868Z,0.40
2023-02-04T06:42:47.286Z,0.38
2023-02-04T06:45:20.262Z,0.46
2023-02-04T06:47:52.601Z,0.42
2023-02-04T06:50:24.949Z,0.56
2023-02-04T06:52:57.310Z,0.61
2023-02-04T06:55:29.651Z,0.62
2023-02-04T06:58:02.176Z,0.65
2023-02-04T07:00:35.249Z,0.80
2023-02-04T07:03:07.765Z,0.60
2023-02-04T07:05:40.107Z,0.58
2023-02-04T07:08:12.758Z,0.69
2023-02-04T07:10:45.087Z,0.63
2023-02-04T07:13:17.509Z,0.82
2023-02-04T07:15:51.896Z,0.86
2023-02-04T07:18:24.373Z,0.87
2023-02-04T07:20:56.730Z,0.53
2023-02-04T07:23:29.112Z,0.62
2023-02-04T07:26:01.702Z,0.78
2023-02-04T07:28:36.262Z,0.95
2023-02-04T07:31:09.338Z,0.91
2023-02-04T07:33:41.819Z,1.01
2023-02-04T07:36:15.315Z,1.17
2023-02-04T07:38:47.795Z,1.10
2023-02-04T07:41:20.462Z,0.87
2023-02-04T07:43:52.935Z,0.77
2023-02-04T07:46:26.187Z,0.86
2023-02-04T07:48:58.548Z,0.97
2023-02-04T07:51:31.196Z,0.85
2023-02-04T07:54:03.615Z,0.98
2023-02-04T07:56:35.953Z,1.05
2023-02-04T07:59:08.286Z,1.10
2023-02-04T08:01:41.447Z,1.11
2023-02-04T08:04:13.816Z,0.97
2023-02-04T08:06:46.240Z,0.89
2023-02-04T08:09:18.593Z,0.90
2023-02-04T08:11:50.975Z,0.72
2023-02-04T08:14:23.312Z,0.90
2023-02-04T08:16:56.460Z,0.77
2023-02-04T08:19:28.829Z,0.98
2023-02-04T08:22:01.677Z,0.74
2023-02-04T08:24:34.062Z,0.71
2023-02-04T08:27:06.631Z,0.87
2023-02-04T08:29:39.338Z,1.00
2023-02-04T08:32:12.923Z,0.93
2023-02-04T08:34:47.622Z,1.11
2023-02-04T08:37:20.156Z,1.03
2023-02-04T08:39:52.828Z,1.02
2023-02-04T08:42:25.285Z,0.75
2023-02-04T08:44:57.655Z,0.93
2023-02-04T08:47:30.786Z,0.78
2023-02-04T08:50:03.233Z,0.69
2023-02-04T08:52:36.068Z,0.88
2023-02-04T08:55:09.030Z,1.04
2023-02-04T08:57:41.514Z,1.13
2023-02-04T09:00:14.997Z,1.15
2023-02-04T09:02:48.032Z,1.17
2023-02-04T09:05:20.620Z,1.16
2023-02-04T09:07:53.022Z,1.29
2023-02-04T09:10:25.462Z,1.36
2023-02-04T09:12:57.863Z,1.30
2023-02-04T09:15:30.258Z,1.38
2023-02-04T09:18:13.222Z,1.21
2023-02-04T09:20:45.896Z,1.19
2023-02-04T09:23:18.852Z,1.30
2023-02-04T09:25:51.556Z,1.23
2023-02-04T09:28:23.948Z,1.19
2023-02-04T09:30:56.566Z,1.23
2023-02-04T09:33:29.840Z,1.17
2023-02-04T09:36:02.408Z,1.16
2023-02-04T09:38:34.783Z,0.99
2023-02-04T09:41:08.840Z,1.17
2023-02-04T09:43:43.925Z,1.28
2023-02-04T09:46:20.569Z,1.25
2023-02-04T09:48:54.083Z,1.27
2023-02-04T09:51:28.611Z,1.14
2023-02-04T09:54:07.850Z,0.99
2023-02-04T09:56:41.761Z,1.00
2023-02-04T09:59:15.989Z,0.79
2023-02-04T10:01:54.564Z,0.90
2023-02-04T10:04:28.266Z,0.74
2023-02-04T10:07:00.952Z,0.86
2023-02-04T10:09:33.415Z,0.85
2023-02-04T10:12:06.777Z,0.81
2023-02-04T10:14:40.051Z,0.79
2023-02-04T10:17:17.397Z,0.88
2023-02-04T10:19:50.600Z,0.93
2023-02-04T10:22:23.061Z,0.59
2023-02-04T10:24:55.377Z,0.30
2023-02-04T10:27:27.763Z,0.59
2023-02-04T10:30:00.260Z,0.51
2023-02-04T10:32:33.844Z,0.59
2023-02-04T10:35:13.912Z,0.57
2023-02-04T10:37:46.967Z,0.63
2023-02-04T10:40:29.617Z,0.64
2023-02-04T10:43:09.886Z,0.42
2023-02-04T10:45:45.438Z,0.25
2023-02-04T10:48:19.101Z,0.32
2023-02-04T10:50:52.450Z,0.57
2023-02-04T10:53:44.490Z,0.61
2023-02-04T10:56:18.823Z,0.38
2023-02-04T10:58:51.478Z,0.59
2023-02-04T11:01:28.471Z,0.59
2023-02-04T11:04:01.467Z,0.79
2023-02-04T11:06:34.652Z,0.84
2023-02-04T11:09:11.142Z,0.56
2023-02-04T11:11:47.851Z,0.68
2023-02-04T11:14:27.444Z,0.86
2023-02-04T11:17:01.946Z,0.93
2023-02-04T11:19:36.996Z,1.02
2023-02-04T11:22:22.486Z,1.10
2023-02-04T11:24:54.937Z,1.08
2023-02-04T11:27:38.923Z,1.22
2023-02-04T11:30:21.675Z,1.33
2023-02-04T11:33:01.932Z,1.37
2023-02-04T11:35:34.553Z,1.40
2023-02-04T11:38:25.286Z,1.51
2023-02-04T11:40:58.234Z,1.60
2023-02-04T11:43:34.105Z,1.49
2023-02-04T11:46:14.590Z,1.57
2023-02-04T11:48:51.840Z,1.44
2023-02-04T11:51:30.206Z,1.43
2023-02-04T11:54:03.714Z,1.54
2023-02-04T11:56:36.064Z,1.56
2023-02-04T11:59:11.626Z,1.49
2023-02-04T12:01:44.009Z,1.49
2023-02-04T12:04:23.147Z,1.45
2023-02-04T12:07:00.151Z,1.44
2023-02-04T12:09:33.493Z,1.29
2023-02-04T12:12:06.369Z,1.36
2023-02-04T12:14:38.935Z,1.40
2023-02-04T12:17:16.260Z,1.46
2023-02-04T12:19:48.632Z,1.14
2023-02-04T12:22:21.191Z,1.16
2023-02-04T12:24:54.260Z,1.33
2023-02-04T12:27:26.609Z,1.49
2023-02-04T12:29:59.016Z,1.51
2023-02-04T12:32:31.380Z,1.45
2023-02-04T12:35:05.405Z,1.27
2023-02-04T12:37:38.002Z,1.42
2023-02-04T12:40:15.486Z,1.46
2023-02-04T12:42:47.982Z,1.47
2023-02-04T12:45:20.453Z,1.54
2023-02-04T12:47:52.947Z,1.26
2023-02-04T12:50:26.131Z,1.48
2023-02-04T12:52:59.516Z,1.47
2023-02-04T12:55:33.017Z,1.29
2023-02-04T12:58:05.509Z,1.38
2023-02-04T13:00:38.235Z,1.43
2023-02-04T13:03:11.366Z,1.34
2023-02-04T13:05:43.871Z,1.38
2023-02-04T13:08:16.282Z,1.31
2023-02-04T13:10:51.400Z,1.17
2023-02-04T13:13:23.771Z,1.13
2023-02-04T13:15:56.193Z,1.15
2023-02-04T13:18:28.580Z,1.10
2023-02-04T13:21:01.774Z,1.25
2023-02-04T13:23:34.145Z,0.97
2023-02-04T13:26:08.499Z,1.07
2023-02-04T13:28:40.924Z,1.22
2023-02-04T13:31:13.404Z,1.25
2023-02-04T13:33:45.758Z,1.16
2023-02-04T13:36:18.493Z,1.20
2023-02-04T13:38:50.836Z,1.26
2023-02-04T13:41:23.928Z,1.34
2023-02-04T13:43:56.714Z,1.29
2023-02-04T13:46:29.476Z,1.20
2023-02-04T13:49:01.866Z,1.19
2023-02-04T13:51:34.385Z,1.15
2023-02-04T13:54:06.781Z,0.86
2023-02-04T13:56:40.464Z,1.14
2023-02-04T13:59:12.870Z,1.27
2023-02-04T14:01:45.235Z,1.36
2023-02-04T14:04:17.686Z,1.39
2023-02-04T14:06:50.188Z,1.41
2023-02-04T14:09:23.234Z,1.44
2023-02-04T14:11:56.276Z,1.38
2023-02-04T14:14:28.833Z,1.25
2023-02-04T14:17:01.447Z,1.33
2023-02-04T14:19:33.810Z,1.44
2023-02-04T14:22:07.088Z,1.25
2023-02-04T14:24:41.808Z,1.31
2023-02-04T14:27:14.789Z,1.20
2023-02-04T14:29:47.241Z,1.12
2023-02-04T14:32:20.389Z,1.13
2023-02-04T14:34:52.765Z,1.08
2023-02-04T14:37:27.797Z,0.92
2023-02-04T14:40:00.296Z,0.82
2023-02-04T14:42:33.419Z,0.69
2023-02-04T14:45:07.660Z,0.62
2023-02-04T14:47:40.364Z,0.61
2023-02-04T14:50:15.676Z,0.67
2023-02-04T14:52:48.159Z,0.74
2023-02-04T14:55:20.580Z,0.72
2023-02-04T14:57:53.666Z,0.65
2023-02-04T15:00:26.130Z,0.55
2023-02-04T15:02:58.455Z,0.42
2023-02-04T15:05:31.006Z,0.60
2023-02-04T15:08:04.015Z,0.78
2023-02-04T15:10:36.723Z,0.73
2023-02-04T15:13:09.909Z,0.89
2023-02-04T15:15:42.558Z,0.80
2023-02-04T15:18:15.031Z,0.50
2023-02-04T15:20:47.566Z,0.53
2023-02-04T15:23:20.108Z,0.61
2023-02-04T15:25:56.716Z,0.44
2023-02-04T15:28:30.617Z,0.25
2023-02-04T15:31:04.487Z,0.33
2023-02-04T15:33:37.028Z,0.26
2023-02-04T15:36:09.610Z,-0.12
2023-02-04T15:38:42.754Z,0.04
2023-02-04T15:41:15.284Z,0.09
2023-02-04T15:43:48.732Z,0.12
2023-02-04T15:46:21.169Z,0.15
2023-02-04T15:48:53.545Z,0.09
2023-02-04T15:51:26.177Z,-0.08
2023-02-04T15:53:58.489Z,-0.26
2023-02-04T15:56:31.499Z,-0.29
2023-02-04T15:59:04.594Z,-0.17
2023-02-04T16:01:37.045Z,-0.38
2023-02-04T16:04:09.480Z,-0.54
2023-02-04T16:06:50.203Z,-0.63
2023-02-04T16:09:26.181Z,-0.72
2023-02-04T16:11:58.567Z,-0.74
2023-02-04T16:14:31.581Z,-0.96
2023-02-04T16:17:06.227Z,-0.79
2023-02-04T16:19:38.780Z,-0.94
2023-02-04T16:22:11.158Z,-1.06
2023-02-04T16:24:44.044Z,-0.99
2023-02-04T16:27:16.843Z,-0.96
2023-02-04T16:29:50.024Z,-1.09
2023-02-04T16:32:22.327Z,-1.12
2023-02-04T16:34:56.062Z,-0.98
2023-02-04T16:37:28.432Z,-1.02
2023-02-04T16:40:01.069Z,-0.79
2023-02-04T16:42:33.349Z,-0.76
2023-02-04T16:45:07.794Z,-0.84
2023-02-04T16:47:40.204Z,-1.04
2023-02-04T16:50:12.617Z,-0.86
2023-02-04T16:52:44.906Z,-0.90
2023-02-04T16:55:17.360Z,-1.10
2023-02-04T16:57:49.746Z,-1.09
2023-02-04T17:00:22.998Z,-0.94
2023-02-04T17:02:55.425Z,-0.87
2023-02-04T17:05:27.925Z,-0.95
2023-02-04T17:08:00.305Z,-1.05
2023-02-04T17:10:52.269Z,-1.21
2023-02-04T17:13:24.632Z,-1.16
2023-02-04T17:16:00.136Z,-0.99
2023-02-04T17:18:32.989Z,-0.82
2023-02-04T17:21:05.622Z,-0.74
2023-02-04T17:23:38.129Z,-0.99
2023-02-04T17:26:10.518Z,-0.70
2023-02-04T17:28:43.060Z,-0.88
2023-02-04T17:31:16.634Z,-0.91
2023-02-04T17:33:49.046Z,-0.84
2023-02-04T17:36:21.427Z,-0.89
2023-02-04T17:38:53.958Z,-0.77
2023-02-04T17:41:26.641Z,-0.62
2023-02-04T17:43:59.315Z,-0.76
2023-02-04T17:46:33.101Z,-1.01
2023-02-04T17:49:05.624Z,-1.15
2023-02-04T17:51:37.983Z,-1.11
2023-02-04T17:54:11.739Z,-1.19
2023-02-04T17:56:45.038Z,-1.33
2023-02-04T17:59:17.381Z,-1.26
2023-02-04T18:01:50.777Z,-1.50
2023-02-04T18:04:23.287Z,-1.45
2023-02-04T18:06:55.774Z,-1.62
2023-02-04T18:09:28.151Z,-1.45
2023-02-04T18:12:02.077Z,-1.52
2023-02-04T18:14:35.119Z,-1.47
2023-02-04T18:17:11.925Z,-1.80
2023-02-04T18:19:44.660Z,-1.62
2023-02-04T18:22:18.167Z,-1.32
2023-02-04T18:24:51.386Z,-1.18
2023-02-04T18:27:30.522Z,-1.11
2023-02-04T18:30:18.183Z,-0.92
2023-02-04T18:32:53.627Z,-1.02
2023-02-04T18:35:38.109Z,-1.02
2023-02-04T18:38:25.446Z,-0.84
2023-02-04T18:41:08.846Z,-0.90
2023-02-04T18:43:41.488Z,-0.85
2023-02-04T18:46:23.243Z,-0.96
2023-02-04T18:49:04.046Z,-0.97
2023-02-04T18:51:39.684Z,-1.02
2023-02-04T18:54:36.779Z,-1.10
2023-02-04T18:57:29.640Z,-1.24
2023-02-04T19:00:25.580Z,-1.10
2023-02-04T19:02:59.700Z,-1.03
2023-02-04T19:05:35.566Z,-1.09
2023-02-04T19:08:21.246Z,-1.45
2023-02-04T19:10:55.402Z,-1.08
2023-02-04T19:13:38.657Z,-1.24
2023-02-04T19:16:21.878Z,-1.01
2023-02-04T19:18:56.328Z,-0.96
2023-02-04T19:21:30.684Z,-0.92
2023-02-04T19:24:16.406Z,-1.18
2023-02-04T19:26:54.410Z,-1.12
2023-02-04T19:29:39.125Z,-1.13
2023-02-04T19:32:27.127Z,-1.43
2023-02-04T19:35:07.649Z,-1.37
2023-02-04T19:37:41.298Z,-1.23
2023-02-04T19:40:33.160Z,-1.10
2023-02-04T19:43:21.034Z,-1.13
2023-02-04T19:45:54.048Z,-1.06
2023-02-04T19:48:33.372Z,-0.98
2023-02-04T19:51:20.614Z,-0.92
2023-02-04T19:53:58.487Z,-0.97
2023-02-04T19:56:35.295Z,-0.88
2023-02-04T19:59:26.196Z,-0.96
2023-02-04T20:02:13.746Z,-0.94
2023-02-04T20:04:49.701Z,-1.04
2023-02-04T20:07:24.302Z,-1.06
2023-02-04T20:10:01.457Z,-1.12
2023-02-04T20:12:33.955Z,-1.11
2023-02-04T20:15:16.682Z,-1.24
2023-02-04T20:17:50.257Z,-1.18
2023-02-04T20:20:27.054Z,-1.08
2023-02-04T20:23:01.579Z,-1.20
2023-02-04T20:25:38.897Z,-1.09
2023-02-04T20:28:21.244Z,-1.15
2023-02-04T20:30:54.705Z,-1.12
2023-02-04T20:33:32.874Z,-1.23
2023-02-04T20:36:40.094Z,-1.18
2023-02-04T20:39:40.783Z,-1.26
2023-02-04T20:42:24.221Z,-1.28
2023-02-04T20:45:09.168Z,-1.36
2023-02-04T20:47:41.847Z,-1.63
2023-02-04T20:50:37.480Z,-1.60
2023-02-04T20:53:20.746Z,-1.50
2023-02-04T20:55:55.652Z,-1.60
2023-02-04T20:58:33.074Z,-1.59
2023-02-04T21:01:18.854Z,-2.17
2023-02-04T21:03:51.356Z,-1.98
2023-02-04T21:06:27.316Z,-2.04
2023-02-04T21:08:59.850Z,-2.16
2023-02-04T21:11:33.064Z,-2.20
2023-02-04T21:14:06.582Z,-2.27
2023-02-04T21:16:39.123Z,-2.27
2023-02-04T21:19:11.708Z,-2.47
2023-02-04T21:21:44.101Z,-2.85
2023-02-04T21:24:16.662Z,-2.84
2023-02-04T21:26:49.087Z,-3.03
2023-02-04T21:29:22.098Z,-2.99
2023-02-04T21:31:54.765Z,-2.81
2023-02-04T21:34:27.336Z,-3.01
2023-02-04T21:36:59.747Z,-2.75
2023-02-04T21:39:32.064Z,-2.93
2023-02-04T21:42:10.606Z,-2.90
2023-02-04T21:44:43.671Z,-2.77
2023-02-04T21:47:17.062Z,-2.79
2023-02-04T21:49:49.853Z,-2.66
2023-02-04T21:52:22.271Z,-2.63
2023-02-04T21:54:54.611Z,-2.85
2023-02-04T21:57:27.369Z,-3.26
2023-02-04T22:00:00.428Z,-3.24
2023-02-04T22:02:32.846Z,-3.17
2023-02-04T22:05:07.036Z,-3.08
2023-02-04T22:07:39.714Z,-3.03
2023-02-04T22:10:14.051Z,-3.17
2023-02-04T22:12:46.488Z,-3.18
2023-02-04T22:15:20.969Z,-3.12
2023-02-04T22:17:54.250Z,-3.05
2023-02-04T22:20:26.645Z,-3.30
2023-02-04T22:22:59.097Z,-3.31
2023-02-04T22:25:31.955Z,-3.35
2023-02-04T22:28:04.725Z,-3.17
2023-02-04T22:30:37.946Z,-3.08
2023-02-04T22:33:11.251Z,-3.08
2023-02-04T22:35:45.238Z,-2.95
2023-02-04T22:38:19.346Z,-2.93
2023-02-04T22:40:51.720Z,-2.95
2023-02-04T22:43:23.979Z,-2.83
2023-02-04T22:45:57.176Z,-2.90
2023-02-04T22:48:29.515Z,-2.89
2023-02-04T22:51:03.023Z,-2.90
2023-02-04T22:53:35.347Z,-2.90
2023-02-04T22:56:07.810Z,-3.22
2023-02-04T22:58:40.420Z,-3.16
2023-02-04T23:01:13.624Z,-3.12
2023-02-04T23:03:47.525Z,-3.24
2023-02-04T23:06:21.806Z,-3.19
2023-02-04T23:08:54.344Z,-3.09
2023-02-04T23:11:26.679Z,-3.12
2023-02-04T23:13:59.008Z,-3.57
2023-02-04T23:16:32.141Z,-3.33
2023-02-04T23:19:04.510Z,-3.80
2023-02-04T23:21:36.953Z,-3.66
2023-02-04T23:24:09.801Z,-3.70
2023-02-04T23:26:42.243Z,-3.61
2023-02-04T23:29:14.638Z,-3.55
2023-02-04T23:31:47.719Z,-3.64
2023-02-04T23:34:20.227Z,-3.59
2023-02-04T23:36:52.777Z,-3.43
2023-02-04T23:39:25.410Z,-3.51
2023-02-04T23:41:57.798Z,-3.66
2023-02-04T23:44:30.159Z,-3.79
2023-02-04T23:47:03.196Z,-3.73
2023-02-04T23:49:35.505Z,-3.62
2023-02-04T23:52:08.441Z,-3.54
2023-02-04T23:54:41.032Z,-3.47
2023-02-04T23:57:13.446Z,-3.42
2023-02-04T23:59:45.798Z,-3.42
